createdAt,value
2022-11-17T00:00:44.352Z,29.60
2022-11-17T00:03:16.024Z,29.47
2022-11-17T00:05:44.398Z,28.07
2022-11-17T00:08:12.732Z,27.77
2022-11-17T00:10:40.941Z,26.90
2022-11-17T00:13:28.567Z,27.97
2022-11-17T00:15:58.100Z,27.80
2022-11-17T00:18:43.704Z,26.63
2022-11-17T00:21:21.250Z,26.20
2022-11-17T00:23:50.357Z,28.40
2022-11-17T00:26:20.522Z,27.93
2022-11-17T00:28:48.977Z,27.53
2022-11-17T00:31:35.853Z,27.07
2022-11-17T00:34:06.752Z,27.13
2022-11-17T00:36:38.023Z,27.80
2022-11-17T00:39:07.121Z,27.93
2022-11-17T00:41:35.333Z,27.80
2022-11-17T00:44:03.713Z,27.73
2022-11-17T00:46:33.586Z,27.53
2022-11-17T00:49:01.865Z,28.53
2022-11-17T00:51:30.298Z,26.53
2022-11-17T00:53:58.476Z,27.77
2022-11-17T00:56:27.467Z,26.97
2022-11-17T00:58:55.707Z,28.47
2022-11-17T01:01:24.817Z,27.67
2022-11-17T01:04:02.982Z,27.37
2022-11-17T01:06:33.227Z,27.70
2022-11-17T01:09:01.714Z,29.63
2022-11-17T01:11:30.295Z,26.43
2022-11-17T01:14:00.524Z,26.87
2022-11-17T01:16:30.090Z,27.10
2022-11-17T01:19:01.183Z,27.97
2022-11-17T01:21:30.981Z,27.57
2022-11-17T01:24:01.104Z,27.80
2022-11-17T01:26:31.418Z,28.90
2022-11-17T01:29:00.386Z,29.37
2022-11-17T01:31:30.565Z,28.50
2022-11-17T01:34:00.320Z,28.40
2022-11-17T01:36:30.920Z,28.60
2022-11-17T01:38:59.126Z,29.80
2022-11-17T01:41:29.370Z,30.23
2022-11-17T01:43:58.639Z,29.83
2022-11-17T01:46:31.814Z,31.40
2022-11-17T01:49:08.331Z,32.13
2022-11-17T01:51:39.405Z,31.27
2022-11-17T01:54:09.232Z,30.87
2022-11-17T01:56:43.482Z,31.07
2022-11-17T01:59:18.345Z,30.93
2022-11-17T02:01:56.705Z,30.33
2022-11-17T02:04:29.254Z,30.60
2022-11-17T02:07:02.550Z,30.47
2022-11-17T02:09:30.950Z,30.17
2022-11-17T02:12:00.159Z,30.63
2022-11-17T02:14:29.326Z,29.37
2022-11-17T02:17:01.357Z,31.07
2022-11-17T02:19:38.718Z,31.57
2022-11-17T02:22:34.747Z,32.10
2022-11-17T02:25:44.349Z,31.27
2022-11-17T02:28:19.208Z,31.73
2022-11-17T02:31:00.585Z,30.77
2022-11-17T02:33:38.196Z,33.00
2022-11-17T02:36:11.063Z,30.90
2022-11-17T02:38:45.089Z,32.27
2022-11-17T02:41:23.036Z,32.27
2022-11-17T02:44:06.781Z,32.13
2022-11-17T02:46:45.829Z,32.33
2022-11-17T02:49:20.895Z,32.53
2022-11-17T02:51:52.845Z,34.03
2022-11-17T02:54:22.826Z,34.27
2022-11-17T02:56:51.008Z,34.17
2022-11-17T02:59:23.984Z,32.50
2022-11-17T03:02:16.301Z,33.77
2022-11-17T03:04:55.888Z,34.03
2022-11-17T03:07:41.711Z,34.13
2022-11-17T03:10:15.679Z,36.30
2022-11-17T03:12:49.171Z,34.77
2022-11-17T03:15:26.088Z,36.13
2022-11-17T03:18:04.350Z,33.43
2022-11-17T03:20:40.671Z,34.97
2022-11-17T03:23:13.414Z,33.07
2022-11-17T03:25:46.807Z,33.70
2022-11-17T03:28:18.738Z,34.47
2022-11-17T03:30:50.333Z,34.20
2022-11-17T03:33:22.810Z,32.90
2022-11-17T03:35:56.193Z,33.77
2022-11-17T03:38:27.828Z,34.17
2022-11-17T03:40:59.473Z,33.90
2022-11-17T03:43:29.569Z,33.73
2022-11-17T03:46:04.501Z,34.20
2022-11-17T03:48:38.006Z,33.10
2022-11-17T03:51:10.300Z,33.20
2022-11-17T03:53:38.993Z,32.27
2022-11-17T03:56:16.278Z,31.20
2022-11-17T03:58:51.539Z,30.63
2022-11-17T04:01:22.211Z,32.03
2022-11-17T04:03:50.547Z,32.17
2022-11-17T04:06:18.768Z,31.40
2022-11-17T04:08:47.134Z,32.63
2022-11-17T04:11:32.757Z,33.50
2022-11-17T04:14:19.106Z,34.73
2022-11-17T04:16:48.644Z,33.80
2022-11-17T04:19:16.835Z,36.07
2022-11-17T04:21:45.036Z,34.90
2022-11-17T04:24:13.198Z,34.50
2022-11-17T04:26:58.669Z,33.33
2022-11-17T04:29:26.799Z,34.63
2022-11-17T04:31:56.366Z,34.27
2022-11-17T04:34:24.613Z,33.17
2022-11-17T04:36:52.823Z,34.00
2022-11-17T04:39:20.998Z,35.20
2022-11-17T04:41:54.113Z,35.77
2022-11-17T04:44:24.124Z,34.50
2022-11-17T04:46:52.917Z,34.10
2022-11-17T04:49:23.902Z,36.10
2022-11-17T04:51:52.690Z,34.80
2022-11-17T04:54:23.087Z,36.30
2022-11-17T04:56:51.977Z,37.13
2022-11-17T04:59:20.281Z,35.53
2022-11-17T05:01:48.982Z,36.93
2022-11-17T05:04:39.396Z,35.60
2022-11-17T05:07:10.351Z,35.53
2022-11-17T05:09:38.566Z,36.60
2022-11-17T05:12:24.535Z,36.17
2022-11-17T05:14:52.727Z,36.20
2022-11-17T05:17:19.904Z,36.00
2022-11-17T05:19:49.657Z,35.13
2022-11-17T05:22:39.771Z,35.90
2022-11-17T05:25:09.005Z,34.63
2022-11-17T05:27:37.457Z,35.30
2022-11-17T05:30:07.743Z,34.60
2022-11-17T05:32:36.162Z,34.70
2022-11-17T05:35:04.437Z,33.83
2022-11-17T05:37:34.014Z,34.10
2022-11-17T05:40:02.205Z,34.20
2022-11-17T05:42:30.368Z,32.43
2022-11-17T05:44:58.553Z,34.47
2022-11-17T05:47:26.723Z,34.57
2022-11-17T05:49:54.886Z,35.10
2022-11-17T05:52:22.995Z,35.87
2022-11-17T05:54:52.600Z,34.20
2022-11-17T05:57:29.219Z,35.77
2022-11-17T06:00:01.813Z,35.43
2022-11-17T06:02:34.584Z,35.33
2022-11-17T06:05:03.599Z,35.63
2022-11-17T06:07:31.864Z,36.07
2022-11-17T06:10:01.608Z,35.90
2022-11-17T06:12:29.910Z,33.87
2022-11-17T06:14:58.066Z,35.00
2022-11-17T06:17:29.530Z,35.00
2022-11-17T06:20:01.667Z,35.47
2022-11-17T06:22:31.306Z,34.47
2022-11-17T06:25:03.067Z,34.77
2022-11-17T06:27:33.136Z,34.83
2022-11-17T06:30:03.411Z,34.37
2022-11-17T06:32:32.715Z,28.07
2022-11-17T06:35:02.584Z,23.10
2022-11-17T06:37:30.785Z,22.63
2022-11-17T06:39:58.926Z,22.27
2022-11-17T06:42:42.296Z,22.10
2022-11-17T06:45:11.567Z,20.43
2022-11-17T06:47:39.884Z,20.30
2022-11-17T06:50:09.470Z,19.97
2022-11-17T06:52:38.230Z,19.73
2022-11-17T06:55:07.305Z,19.43
2022-11-17T06:57:36.884Z,19.90
2022-11-17T07:00:07.250Z,19.33
2022-11-17T07:02:36.762Z,21.03
2022-11-17T07:05:05.706Z,20.73
2022-11-17T07:07:34.051Z,20.27
2022-11-17T07:10:02.360Z,19.53
2022-11-17T07:12:30.633Z,20.57
2022-11-17T07:15:00.272Z,19.73
2022-11-17T07:17:29.624Z,19.77
2022-11-17T07:19:57.948Z,19.37
2022-11-17T07:22:26.130Z,19.93
2022-11-17T07:24:54.328Z,19.83
2022-11-17T07:27:22.678Z,20.80
2022-11-17T07:29:50.915Z,25.00
2022-11-17T07:32:20.488Z,22.63
2022-11-17T07:34:48.874Z,22.30
2022-11-17T07:37:17.139Z,27.37
2022-11-17T07:39:45.527Z,22.47
2022-11-17T07:42:13.763Z,21.67
2022-11-17T07:44:42.007Z,30.97
2022-11-17T07:47:10.182Z,34.57
2022-11-17T07:49:39.797Z,36.40
2022-11-17T07:52:08.024Z,36.90
2022-11-17T07:54:36.267Z,37.53
2022-11-17T07:57:05.064Z,37.80
2022-11-17T07:59:33.524Z,37.53
2022-11-17T08:02:01.708Z,30.30
2022-11-17T08:04:29.936Z,37.60
2022-11-17T08:06:59.572Z,38.57
2022-11-17T08:09:27.831Z,36.97
2022-11-17T08:11:57.628Z,37.37
2022-11-17T08:14:25.844Z,38.03
2022-11-17T08:16:54.056Z,30.87
2022-11-17T08:19:22.368Z,35.93
2022-11-17T08:21:51.090Z,36.50
2022-11-17T08:24:21.031Z,33.83
2022-11-17T08:26:49.262Z,31.00
2022-11-17T08:29:18.937Z,28.37
2022-11-17T08:31:47.877Z,29.87
2022-11-17T08:34:16.115Z,30.60
2022-11-17T08:36:44.367Z,31.17
2022-11-17T08:39:12.660Z,30.60
2022-11-17T08:41:42.261Z,27.67
2022-11-17T08:44:10.456Z,26.23
2022-11-17T08:46:38.659Z,26.00
2022-11-17T08:49:06.902Z,28.00
2022-11-17T08:51:35.261Z,27.07
2022-11-17T08:54:03.447Z,27.37
2022-11-17T08:56:31.723Z,22.07
2022-11-17T08:59:03.608Z,27.97
2022-11-17T09:01:32.002Z,28.50
2022-11-17T09:04:00.254Z,24.20
2022-11-17T09:06:28.456Z,27.10
2022-11-17T09:08:56.808Z,27.30
2022-11-17T09:11:25.332Z,27.80
2022-11-17T09:13:53.664Z,23.83
2022-11-17T09:16:24.079Z,26.83
2022-11-17T09:18:57.017Z,26.70
2022-11-17T09:21:27.211Z,25.97
2022-11-17T09:23:55.544Z,23.60
2022-11-17T09:26:23.920Z,25.70
2022-11-17T09:28:52.140Z,25.00
2022-11-17T09:31:23.540Z,24.33
2022-11-17T09:33:51.972Z,21.70
2022-11-17T09:36:20.298Z,23.87
2022-11-17T09:38:48.843Z,21.97
2022-11-17T09:41:26.751Z,20.67
2022-11-17T09:44:16.461Z,20.53
2022-11-17T09:47:02.794Z,22.37
2022-11-17T09:49:58.998Z,19.30
2022-11-17T09:52:32.089Z,20.60
2022-11-17T09:55:02.650Z,21.50
2022-11-17T09:57:38.860Z,20.17
2022-11-17T10:00:14.820Z,18.80
2022-11-17T10:02:44.773Z,21.13
2022-11-17T10:05:17.350Z,20.03
2022-11-17T10:07:50.287Z,18.10
2022-11-17T10:10:22.984Z,20.93
2022-11-17T10:12:54.382Z,20.67
2022-11-17T10:15:28.590Z,19.00
2022-11-17T10:17:58.478Z,20.47
2022-11-17T10:20:26.703Z,22.13
2022-11-17T10:22:55.699Z,19.80
2022-11-17T10:25:37.285Z,20.57
2022-11-17T10:28:07.789Z,21.00
2022-11-17T10:30:36.603Z,20.63
2022-11-17T10:33:06.339Z,19.33
2022-11-17T10:35:35.938Z,20.20
2022-11-17T10:38:06.920Z,20.93
2022-11-17T10:40:48.460Z,21.93
2022-11-17T10:43:25.289Z,18.17
2022-11-17T10:45:55.707Z,23.00
2022-11-17T10:48:29.225Z,24.80
2022-11-17T10:50:59.160Z,22.40
2022-11-17T10:53:45.145Z,23.23
2022-11-17T10:56:17.828Z,24.57
2022-11-17T10:59:12.695Z,22.67
2022-11-17T11:01:42.546Z,23.73
2022-11-17T11:04:34.695Z,23.43
2022-11-17T11:07:12.470Z,21.60
2022-11-17T11:09:46.495Z,21.57
2022-11-17T11:12:18.632Z,23.80
2022-11-17T11:14:51.850Z,22.00
2022-11-17T11:17:20.352Z,22.43
2022-11-17T11:19:54.164Z,25.53
2022-11-17T11:22:32.925Z,26.27
2022-11-17T11:25:17.600Z,20.97
2022-11-17T11:27:57.410Z,28.33
2022-11-17T11:30:25.849Z,28.40
2022-11-17T11:33:07.366Z,24.80
2022-11-17T11:35:51.174Z,27.37
2022-11-17T11:38:39.501Z,28.37
2022-11-17T11:41:28.505Z,25.10
2022-11-17T11:44:10.252Z,26.70
2022-11-17T11:46:48.033Z,26.83
2022-11-17T11:49:26.442Z,22.37
2022-11-17T11:51:56.121Z,23.43
2022-11-17T11:54:33.186Z,23.70
2022-11-17T11:57:02.677Z,20.83
2022-11-17T11:59:39.907Z,21.57
2022-11-17T12:02:25.840Z,22.30
2022-11-17T12:05:05.166Z,21.10
2022-11-17T12:07:44.012Z,18.73
2022-11-17T12:10:17.904Z,22.20
2022-11-17T12:12:47.576Z,22.43
2022-11-17T12:15:37.861Z,21.17
2022-11-17T12:18:12.504Z,16.87
2022-11-17T12:20:58.936Z,22.83
2022-11-17T12:24:10.181Z,23.77
2022-11-17T12:26:38.988Z,22.90
2022-11-17T12:29:47.138Z,23.93
2022-11-17T12:32:52.766Z,25.37
2022-11-17T12:35:25.859Z,25.23
2022-11-17T12:38:27.085Z,26.03
2022-11-17T12:40:56.789Z,24.43
2022-11-17T12:43:26.432Z,26.33
2022-11-17T12:46:14.353Z,23.23
2022-11-17T12:48:50.926Z,22.77
2022-11-17T12:51:28.162Z,27.13
2022-11-17T12:54:05.844Z,20.03
2022-11-17T12:56:42.874Z,27.63
2022-11-17T12:59:35.410Z,23.70
2022-11-17T13:02:18.405Z,18.77
2022-11-17T13:04:50.380Z,25.87
2022-11-17T13:07:21.642Z,23.17
2022-11-17T13:09:52.965Z,21.37
2022-11-17T13:12:25.593Z,27.63
2022-11-17T13:14:56.045Z,21.43
2022-11-17T13:17:29.595Z,19.57
2022-11-17T13:20:02.687Z,25.77
2022-11-17T13:22:31.006Z,18.67
2022-11-17T13:24:59.857Z,17.70
2022-11-17T13:27:31.755Z,27.33
2022-11-17T13:30:22.804Z,20.17
2022-11-17T13:32:51.693Z,19.73
2022-11-17T13:35:27.384Z,23.50
2022-11-17T13:38:08.369Z,28.77
2022-11-17T13:40:41.527Z,21.50
2022-11-17T13:43:21.740Z,20.83
2022-11-17T13:45:51.119Z,17.40
2022-11-17T13:48:33.334Z,16.50
2022-11-17T13:51:24.804Z,19.47
2022-11-17T13:53:56.828Z,20.70
2022-11-17T13:56:32.897Z,16.93
2022-11-17T13:59:06.306Z,16.73
2022-11-17T14:01:34.789Z,24.80
2022-11-17T14:04:20.443Z,22.17
2022-11-17T14:06:57.518Z,17.73
2022-11-17T14:09:27.002Z,16.90
2022-11-17T14:11:55.697Z,14.47
2022-11-17T14:14:33.483Z,17.00
2022-11-17T14:17:13.194Z,24.07
2022-11-17T14:19:41.436Z,20.17
2022-11-17T14:22:31.014Z,19.80
2022-11-17T14:25:00.455Z,17.40
2022-11-17T14:27:51.946Z,15.70
2022-11-17T14:30:24.135Z,14.93
2022-11-17T14:32:53.137Z,21.63
2022-11-17T14:35:21.394Z,20.67
2022-11-17T14:37:49.655Z,15.47
2022-11-17T14:40:18.961Z,18.27
2022-11-17T14:42:47.170Z,23.30
2022-11-17T14:45:16.715Z,20.93
2022-11-17T14:47:46.462Z,17.10
2022-11-17T14:50:16.982Z,23.40
2022-11-17T14:52:46.900Z,21.67
2022-11-17T14:55:15.491Z,18.63
2022-11-17T14:57:43.884Z,22.67
2022-11-17T15:00:17.373Z,22.23
2022-11-17T15:02:51.171Z,19.67
2022-11-17T15:05:19.420Z,23.23
2022-11-17T15:07:47.619Z,22.70
2022-11-17T15:10:15.812Z,18.33
2022-11-17T15:12:44.079Z,23.73
2022-11-17T15:15:12.489Z,22.10
2022-11-17T15:17:40.741Z,19.90
2022-11-17T15:20:11.539Z,25.83
2022-11-17T15:22:39.742Z,22.50
2022-11-17T15:25:09.404Z,18.97
2022-11-17T15:27:37.636Z,24.57
2022-11-17T15:30:06.803Z,22.63
2022-11-17T15:32:34.981Z,20.07
2022-11-17T15:35:03.144Z,26.80
2022-11-17T15:37:32.764Z,23.10
2022-11-17T15:40:00.990Z,25.10
2022-11-17T15:42:29.210Z,28.47
2022-11-17T15:44:57.398Z,20.90
2022-11-17T15:47:25.627Z,24.73
2022-11-17T15:49:58.674Z,28.93
2022-11-17T15:52:48.523Z,20.90
2022-11-17T15:55:17.027Z,28.03
2022-11-17T15:57:45.181Z,24.13
2022-11-17T16:00:14.601Z,19.07
2022-11-17T16:02:43.110Z,25.73
2022-11-17T16:05:11.345Z,23.73
2022-11-17T16:07:39.898Z,24.30
2022-11-17T16:10:08.601Z,26.67
2022-11-17T16:12:38.226Z,17.60
2022-11-17T16:15:09.482Z,26.30
2022-11-17T16:17:37.636Z,23.67
2022-11-17T16:20:06.782Z,20.00
2022-11-17T16:22:35.057Z,25.60
2022-11-17T16:25:04.341Z,21.97
2022-11-17T16:27:33.003Z,24.87
2022-11-17T16:30:02.581Z,28.30
2022-11-17T16:32:32.739Z,23.77
2022-11-17T16:35:00.901Z,31.60
2022-11-17T16:37:29.148Z,28.23
2022-11-17T16:39:57.311Z,28.87
2022-11-17T16:42:25.508Z,32.70
2022-11-17T16:44:53.872Z,28.20
2022-11-17T16:47:23.523Z,31.20
2022-11-17T16:49:51.984Z,28.43
2022-11-17T16:52:20.272Z,26.33
2022-11-17T16:54:48.443Z,31.30
2022-11-17T16:57:16.689Z,24.57
2022-11-17T16:59:44.920Z,30.10
2022-11-17T17:02:13.882Z,26.17
2022-11-17T17:04:43.420Z,25.73
2022-11-17T17:07:11.697Z,29.93
2022-11-17T17:09:39.957Z,25.57
2022-11-17T17:12:08.228Z,29.33
2022-11-17T17:14:36.501Z,28.60
2022-11-17T17:17:04.770Z,28.07
2022-11-17T17:19:33.103Z,31.20
2022-11-17T17:22:03.175Z,25.17
2022-11-17T17:24:31.399Z,28.87
2022-11-17T17:26:59.570Z,25.13
2022-11-17T17:29:27.772Z,26.43
2022-11-17T17:31:56.218Z,30.07
2022-11-17T17:34:24.420Z,23.77
2022-11-17T17:36:52.598Z,20.90
2022-11-17T17:39:22.147Z,18.20
2022-11-17T17:41:50.322Z,20.40
2022-11-17T17:44:20.393Z,20.67
2022-11-17T17:46:49.338Z,21.03
2022-11-17T17:49:19.010Z,19.77
2022-11-17T17:51:47.760Z,19.07
2022-11-17T17:54:17.995Z,19.03
2022-11-17T17:56:48.536Z,19.60
2022-11-17T17:59:17.434Z,19.97
2022-11-17T18:01:47.822Z,20.03
2022-11-17T18:04:17.347Z,18.43
2022-11-17T18:06:48.092Z,31.00
2022-11-17T18:09:19.390Z,33.10
2022-11-17T18:11:51.204Z,29.07
2022-11-17T18:14:22.503Z,31.67
2022-11-17T18:16:51.448Z,32.50
2022-11-17T18:19:20.066Z,30.60
2022-11-17T18:21:48.290Z,29.37
2022-11-17T18:24:16.529Z,29.80
2022-11-17T18:26:44.743Z,29.67
2022-11-17T18:29:18.480Z,28.90
2022-11-17T18:31:47.888Z,27.63
2022-11-17T18:34:18.853Z,29.57
2022-11-17T18:36:47.257Z,29.57
2022-11-17T18:39:16.281Z,30.27
2022-11-17T18:41:44.837Z,28.63
2022-11-17T18:44:15.226Z,29.13
2022-11-17T18:46:43.625Z,29.00
2022-11-17T18:49:12.023Z,29.93
2022-11-17T18:51:40.306Z,29.40
2022-11-17T18:54:08.977Z,27.17
2022-11-17T18:56:38.437Z,29.13
2022-11-17T18:59:11.546Z,29.40
2022-11-17T19:01:43.016Z,28.27
2022-11-17T19:04:13.311Z,29.07
2022-11-17T19:06:41.710Z,29.90
2022-11-17T19:09:10.857Z,30.97
2022-11-17T19:11:39.088Z,30.20
2022-11-17T19:14:07.513Z,29.87
2022-11-17T19:16:44.626Z,30.60
2022-11-17T19:19:15.529Z,29.70
2022-11-17T19:21:44.297Z,29.60
2022-11-17T19:24:12.679Z,32.43
2022-11-17T19:26:41.119Z,32.40
2022-11-17T19:29:16.851Z,31.70
2022-11-17T19:31:46.552Z,29.43
2022-11-17T19:34:16.508Z,31.80
2022-11-17T19:36:45.516Z,33.57
2022-11-17T19:39:14.879Z,33.77
2022-11-17T19:41:43.784Z,32.40
2022-11-17T19:44:12.480Z,32.33
2022-11-17T19:46:40.788Z,33.10
2022-11-17T19:49:09.097Z,35.23
2022-11-17T19:51:38.703Z,35.80
2022-11-17T19:54:08.991Z,36.67
2022-11-17T19:56:38.493Z,36.20
2022-11-17T19:59:10.940Z,37.30
2022-11-17T20:01:40.823Z,38.03
2022-11-17T20:04:09.011Z,39.70
2022-11-17T20:06:39.895Z,40.73
2022-11-17T20:09:09.393Z,39.77
2022-11-17T20:11:37.963Z,39.67
2022-11-17T20:14:06.310Z,38.63
2022-11-17T20:16:34.719Z,40.23
2022-11-17T20:19:03.519Z,40.70
2022-11-17T20:21:32.536Z,42.53
2022-11-17T20:24:02.782Z,42.03
2022-11-17T20:26:32.871Z,42.40
2022-11-17T20:29:01.719Z,42.07
2022-11-17T20:31:31.916Z,41.10
2022-11-17T20:34:01.675Z,44.20
2022-11-17T20:36:32.607Z,43.43
2022-11-17T20:39:04.188Z,42.53
2022-11-17T20:41:32.506Z,41.50
2022-11-17T20:44:02.454Z,42.13
2022-11-17T20:46:31.028Z,42.27
2022-11-17T20:48:59.234Z,43.37
2022-11-17T20:51:27.746Z,44.33
2022-11-17T20:53:55.962Z,43.33
2022-11-17T20:56:25.520Z,41.60
2022-11-17T20:58:53.715Z,42.00
2022-11-17T21:01:24.090Z,44.90
2022-11-17T21:03:52.753Z,42.27
2022-11-17T21:06:23.109Z,43.33
2022-11-17T21:08:51.972Z,42.03
2022-11-17T21:11:39.309Z,42.07
2022-11-17T21:14:10.553Z,42.43
2022-11-17T21:16:40.312Z,41.87
2022-11-17T21:19:09.161Z,42.60
2022-11-17T21:21:37.538Z,38.47
2022-11-17T21:24:06.572Z,38.67
2022-11-17T21:26:35.004Z,38.47
2022-11-17T21:29:06.725Z,38.10
2022-11-17T21:31:36.721Z,37.53
2022-11-17T21:34:07.162Z,38.60
2022-11-17T21:36:36.634Z,38.07
2022-11-17T21:39:05.754Z,37.43
2022-11-17T21:41:36.234Z,37.43
2022-11-17T21:44:04.736Z,37.17
2022-11-17T21:46:35.314Z,36.47
2022-11-17T21:49:05.080Z,35.63
2022-11-17T21:51:37.862Z,35.73
2022-11-17T21:54:07.969Z,35.03
2022-11-17T21:56:36.544Z,34.80
2022-11-17T21:59:06.621Z,34.23
2022-11-17T22:01:35.924Z,33.33
2022-11-17T22:04:05.912Z,33.30
2022-11-17T22:06:34.252Z,33.37
2022-11-17T22:09:02.458Z,34.47
2022-11-17T22:11:38.466Z,32.33
2022-11-17T22:14:09.246Z,33.73
2022-11-17T22:16:39.187Z,33.07
2022-11-17T22:19:09.655Z,34.27
2022-11-17T22:21:38.858Z,35.00
2022-11-17T22:24:09.461Z,33.67
2022-11-17T22:26:38.551Z,34.60
2022-11-17T22:29:08.294Z,35.47
2022-11-17T22:31:36.529Z,34.27
2022-11-17T22:34:05.073Z,34.20
2022-11-17T22:36:34.696Z,33.73
2022-11-17T22:39:03.107Z,33.37
2022-11-17T22:41:31.339Z,32.80
2022-11-17T22:43:59.545Z,33.30
2022-11-17T22:46:29.106Z,31.57
2022-11-17T22:48:57.590Z,32.57
2022-11-17T22:51:58.408Z,33.17
2022-11-17T22:54:28.038Z,35.30
2022-11-17T22:56:56.263Z,35.90
2022-11-17T22:59:24.871Z,33.70
2022-11-17T23:01:53.111Z,34.63
2022-11-17T23:04:23.008Z,35.27
2022-11-17T23:06:51.440Z,33.53
2022-11-17T23:09:19.874Z,33.93
2022-11-17T23:11:49.572Z,33.87
2022-11-17T23:14:17.793Z,34.83
2022-11-17T23:16:45.983Z,35.50
2022-11-17T23:19:15.216Z,34.03
2022-11-17T23:21:43.747Z,35.50
2022-11-17T23:24:13.037Z,36.00
2022-11-17T23:26:41.678Z,34.87
2022-11-17T23:29:11.834Z,34.13
2022-11-17T23:31:40.148Z,36.10
2022-11-17T23:34:11.274Z,36.33
2022-11-17T23:36:39.630Z,35.87
2022-11-17T23:39:07.817Z,35.53
2022-11-17T23:41:35.997Z,35.17
2022-11-17T23:44:04.215Z,36.50
2022-11-17T23:46:33.779Z,36.03
2022-11-17T23:49:02.077Z,36.00
2022-11-17T23:51:30.316Z,37.43
2022-11-17T23:54:00.513Z,35.27
2022-11-17T23:56:28.830Z,35.30
2022-11-17T23:58:57.062Z,35.47
